createdAt,value
2017-01-17T00:00:58.394Z,1.91
2017-01-17T00:01:59.218Z,1.8
2017-01-17T00:02:59.212Z,1.81
2017-01-17T00:03:59.274Z,1.87
2017-01-17T00:04:58.840Z,1.89
2017-01-17T00:05:58.848Z,1.89
2017-01-17T00:06:58.862Z,1.88
2017-01-17T00:07:58.866Z,1.84
2017-01-17T00:08:58.474Z,1.78
2017-01-17T00:09:58.897Z,1.78
2017-01-17T00:10:58.498Z,1.84
2017-01-17T00:11:58.506Z,1.89
2017-01-17T00:12:58.918Z,1.89
2017-01-17T00:13:58.926Z,1.68
2017-01-17T00:14:58.542Z,1.78
2017-01-17T00:15:58.548Z,1.91
2017-01-17T00:16:59.353Z,1.78
2017-01-17T00:17:59.372Z,1.8
2017-01-17T00:18:59.060Z,1.87
2017-01-17T00:19:58.593Z,1.89
2017-01-17T00:20:58.599Z,2.02
2017-01-17T00:21:58.606Z,1.91
2017-01-17T00:22:58.621Z,1.74
2017-01-17T00:23:58.677Z,1.73
2017-01-17T00:24:59.034Z,1.71
2017-01-17T00:25:59.048Z,1.73
2017-01-17T00:26:58.686Z,1.76
2017-01-17T00:27:59.070Z,1.8
2017-01-17T00:28:59.578Z,1.81
2017-01-17T00:29:58.694Z,1.7
2017-01-17T00:30:58.705Z,1.68
2017-01-17T00:31:59.109Z,1.78
2017-01-17T00:32:59.523Z,1.77
2017-01-17T00:33:58.741Z,1.73
2017-01-17T00:34:58.741Z,1.7
2017-01-17T00:35:59.550Z,1.74
2017-01-17T00:36:58.759Z,1.78
2017-01-17T00:37:59.184Z,1.88
2017-01-17T00:38:58.788Z,1.81
2017-01-17T00:39:58.797Z,1.81
2017-01-17T00:40:59.202Z,1.87
2017-01-17T00:41:58.821Z,1.85
2017-01-17T00:42:59.226Z,1.81
2017-01-17T00:43:58.837Z,1.78
2017-01-17T00:44:59.362Z,1.81
2017-01-17T00:45:58.856Z,1.78
2017-01-17T00:46:58.867Z,1.74
2017-01-17T00:47:59.277Z,1.73
2017-01-17T00:48:58.885Z,1.77
2017-01-17T00:49:58.897Z,1.74
2017-01-17T00:50:59.302Z,1.77
2017-01-17T00:51:59.317Z,1.91
2017-01-17T00:52:59.725Z,1.77
2017-01-17T00:53:59.738Z,1.7
2017-01-17T00:54:59.347Z,1.67
2017-01-17T00:55:59.355Z,1.71
2017-01-17T00:56:58.968Z,1.71
2017-01-17T00:57:58.980Z,1.56
2017-01-17T00:58:59.386Z,1.49
2017-01-17T00:59:59.398Z,1.49
2017-01-17T01:00:59.405Z,1.32
2017-01-17T01:01:59.418Z,1.44
2017-01-17T01:02:59.450Z,1.48
2017-01-17T01:03:59.840Z,1.56
2017-01-17T01:04:59.847Z,1.63
2017-01-17T01:05:59.858Z,1.48
2017-01-17T01:06:59.470Z,1.44
2017-01-17T01:07:59.883Z,1.53
2017-01-17T01:08:59.092Z,1.53
2017-01-17T01:09:59.949Z,1.45
2017-01-17T01:10:59.508Z,1.55
2017-01-17T01:11:59.518Z,1.58
2017-01-17T01:12:59.530Z,1.59
2017-01-17T01:13:59.538Z,1.63
2017-01-17T01:14:59.197Z,1.52
2017-01-17T01:15:59.559Z,1.28
2017-01-17T01:16:59.971Z,1.2
2017-01-17T01:17:59.583Z,1.24
2017-01-17T01:18:59.986Z,1.32
2017-01-17T01:20:00.256Z,1.49
2017-01-17T01:21:00.008Z,1.45
2017-01-17T01:21:59.222Z,1.48
2017-01-17T01:23:00.030Z,1.31
2017-01-17T01:23:59.239Z,1.42
2017-01-17T01:24:59.648Z,1.45
2017-01-17T01:25:59.658Z,1.49
2017-01-17T01:26:59.669Z,1.48
2017-01-17T01:27:59.282Z,1.37
2017-01-17T01:29:00.087Z,1.42
2017-01-17T01:30:00.099Z,1.28
2017-01-17T01:30:59.712Z,1.44
2017-01-17T01:31:59.327Z,1.48
2017-01-17T01:32:59.733Z,1.58
2017-01-17T01:33:59.738Z,1.48
2017-01-17T01:34:59.751Z,1.48
2017-01-17T01:35:59.766Z,1.48
2017-01-17T01:37:00.200Z,1.55
2017-01-17T01:38:00.178Z,1.59
2017-01-17T01:38:59.792Z,1.63
2017-01-17T01:40:00.206Z,1.45
2017-01-17T01:40:59.815Z,1.44
2017-01-17T01:41:59.818Z,1.49
2017-01-17T01:42:59.833Z,1.44
2017-01-17T01:43:59.441Z,1.59
2017-01-17T01:44:59.852Z,1.6
2017-01-17T01:45:59.910Z,1.49
2017-01-17T01:46:59.869Z,1.45
2017-01-17T01:48:00.282Z,1.48
2017-01-17T01:49:00.289Z,1.5
2017-01-17T01:49:59.503Z,1.63
2017-01-17T01:50:59.935Z,1.59
2017-01-17T01:51:59.525Z,1.62
2017-01-17T01:52:59.936Z,1.66
2017-01-17T01:53:59.941Z,1.66
2017-01-17T01:54:59.951Z,1.6
2017-01-17T01:56:00.360Z,1.6
2017-01-17T01:57:00.374Z,1.6
2017-01-17T01:58:00.001Z,1.62
2017-01-17T01:58:59.991Z,1.6
2017-01-17T02:00:00.005Z,1.58
2017-01-17T02:01:00.011Z,1.59
2017-01-17T02:01:59.626Z,1.6
2017-01-17T02:03:00.039Z,1.44
2017-01-17T02:04:00.046Z,1.32
2017-01-17T02:05:00.104Z,1.26
2017-01-17T02:06:00.063Z,1.22
2017-01-17T02:07:00.074Z,1.26
2017-01-17T02:07:59.708Z,1.2
2017-01-17T02:09:00.493Z,1.31
2017-01-17T02:09:59.807Z,1.32
2017-01-17T02:10:59.713Z,1.28
2017-01-17T02:12:00.138Z,1.42
2017-01-17T02:13:00.174Z,1.41
2017-01-17T02:14:00.546Z,1.35
2017-01-17T02:14:59.809Z,1.42
2017-01-17T02:15:59.767Z,1.31
2017-01-17T02:17:00.576Z,1.44
2017-01-17T02:18:00.583Z,1.34
2017-01-17T02:19:00.599Z,1.35
2017-01-17T02:19:59.813Z,1.28
2017-01-17T02:20:59.826Z,1.17
2017-01-17T02:22:00.622Z,1.26
2017-01-17T02:22:59.847Z,1.2
2017-01-17T02:24:00.250Z,1.3
2017-01-17T02:25:00.653Z,1.28
2017-01-17T02:26:00.272Z,1.31
2017-01-17T02:27:00.275Z,1.24
2017-01-17T02:27:59.892Z,1.31
2017-01-17T02:29:00.697Z,1.3
2017-01-17T02:29:59.909Z,1.3
2017-01-17T02:31:00.714Z,1.2
2017-01-17T02:32:00.322Z,1.17
2017-01-17T02:33:00.338Z,1.23
2017-01-17T02:34:00.745Z,1.22
2017-01-17T02:35:00.353Z,1.17
2017-01-17T02:36:00.772Z,1.3
2017-01-17T02:37:00.374Z,1.19
2017-01-17T02:38:00.385Z,1.2
2017-01-17T02:39:00.795Z,1.23
2017-01-17T02:40:00.039Z,1.19
2017-01-17T02:41:00.119Z,1.13
2017-01-17T02:42:00.026Z,1.14
2017-01-17T02:43:00.637Z,1.06
2017-01-17T02:44:00.442Z,1.2
2017-01-17T02:45:00.453Z,1.17
2017-01-17T02:46:00.469Z,1.08
2017-01-17T02:47:00.074Z,1.14
2017-01-17T02:48:00.084Z,1.06
2017-01-17T02:49:00.101Z,1.14
2017-01-17T02:50:00.901Z,1.13
2017-01-17T02:51:00.929Z,1.13
2017-01-17T02:52:00.123Z,1.02
2017-01-17T02:53:00.955Z,1.1
2017-01-17T02:54:00.955Z,1.08
2017-01-17T02:55:00.159Z,1.19
2017-01-17T02:56:00.264Z,1.1
2017-01-17T02:57:00.574Z,1.06
2017-01-17T02:58:00.210Z,1.1
2017-01-17T02:59:00.192Z,0.99
2017-01-17T03:00:00.600Z,1.08
2017-01-17T03:01:00.216Z,1.12
2017-01-17T03:02:01.023Z,1.12
2017-01-17T03:03:00.633Z,1.08
2017-01-17T03:04:00.639Z,1.01
2017-01-17T03:05:00.302Z,1.16
2017-01-17T03:06:00.266Z,1.16
2017-01-17T03:07:01.071Z,1.08
2017-01-17T03:08:00.281Z,1.14
2017-01-17T03:09:00.688Z,1.17
2017-01-17T03:10:00.751Z,1.16
2017-01-17T03:11:00.312Z,1.05
2017-01-17T03:12:01.129Z,0.99
2017-01-17T03:13:00.742Z,0.78
2017-01-17T03:14:00.738Z,0.78
2017-01-17T03:15:00.903Z,0.73
2017-01-17T03:16:00.359Z,0.76
2017-01-17T03:17:00.374Z,0.77
2017-01-17T03:18:00.775Z,0.88
2017-01-17T03:19:00.389Z,0.87
2017-01-17T03:20:00.846Z,0.74
2017-01-17T03:21:00.411Z,0.81
2017-01-17T03:22:01.217Z,0.68
2017-01-17T03:23:00.424Z,0.78
2017-01-17T03:24:00.439Z,0.83
2017-01-17T03:25:00.446Z,0.77
2017-01-17T03:26:01.259Z,0.98
2017-01-17T03:27:00.871Z,0.94
2017-01-17T03:28:00.874Z,0.94
2017-01-17T03:29:00.482Z,0.83
2017-01-17T03:30:00.493Z,0.86
2017-01-17T03:31:00.507Z,0.88
2017-01-17T03:32:00.913Z,0.83
2017-01-17T03:33:00.523Z,0.73
2017-01-17T03:34:00.935Z,0.74
2017-01-17T03:35:01.342Z,0.65
2017-01-17T03:36:01.351Z,0.68
2017-01-17T03:37:01.359Z,0.68
2017-01-17T03:38:00.974Z,0.77
2017-01-17T03:39:01.385Z,0.74
2017-01-17T03:40:00.988Z,0.65
2017-01-17T03:41:01.397Z,0.58
2017-01-17T03:42:01.410Z,0.83
2017-01-17T03:43:01.418Z,0.69
2017-01-17T03:44:01.428Z,0.62
2017-01-17T03:45:01.436Z,0.49
2017-01-17T03:46:01.049Z,0.55
2017-01-17T03:47:01.056Z,0.56
2017-01-17T03:48:01.068Z,0.68
2017-01-17T03:49:01.081Z,0.73
2017-01-17T03:50:01.088Z,0.8
2017-01-17T03:51:01.096Z,0.73
2017-01-17T03:52:00.709Z,0.63
2017-01-17T03:53:01.116Z,0.6
2017-01-17T03:54:00.727Z,0.6
2017-01-17T03:55:01.534Z,0.47
2017-01-17T03:56:01.195Z,0.49
2017-01-17T03:57:00.759Z,0.44
2017-01-17T03:58:00.762Z,0.46
2017-01-17T03:59:01.573Z,0.32
2017-01-17T04:00:00.784Z,0.46
2017-01-17T04:01:01.243Z,0.49
2017-01-17T04:02:01.203Z,0.52
2017-01-17T04:03:01.212Z,0.49
2017-01-17T04:04:01.219Z,0.39
2017-01-17T04:05:01.627Z,0.39
2017-01-17T04:06:01.238Z,0.36
2017-01-17T04:07:01.249Z,0.36
2017-01-17T04:08:01.667Z,0.39
2017-01-17T04:09:01.267Z,0.41
2017-01-17T04:10:01.680Z,0.32
2017-01-17T04:11:01.691Z,0.41
2017-01-17T04:12:01.295Z,0.34
2017-01-17T04:13:01.306Z,0.47
2017-01-17T04:14:01.319Z,0.29
2017-01-17T04:15:00.973Z,0.41
2017-01-17T04:16:00.934Z,0.37
2017-01-17T04:17:01.347Z,0.39
2017-01-17T04:18:00.954Z,0.36
2017-01-17T04:19:01.761Z,0.36
2017-01-17T04:20:01.719Z,0.36
2017-01-17T04:21:01.378Z,0.29
2017-01-17T04:22:01.392Z,0.34
2017-01-17T04:23:01.001Z,0.43
2017-01-17T04:24:01.009Z,0.39
2017-01-17T04:25:01.016Z,0.4
2017-01-17T04:26:01.425Z,0.55
2017-01-17T04:27:01.436Z,0.47
2017-01-17T04:28:01.443Z,0.44
2017-01-17T04:29:01.455Z,0.5
2017-01-17T04:30:01.863Z,0.29
2017-01-17T04:31:01.875Z,0.26
2017-01-17T04:32:01.878Z,0.07
2017-01-17T04:33:01.495Z,0.15
2017-01-17T04:34:01.501Z,0.16
2017-01-17T04:35:01.515Z,0.31
2017-01-17T04:36:01.127Z,0.39
2017-01-17T04:37:01.530Z,0.34
2017-01-17T04:38:01.138Z,0.37
2017-01-17T04:39:01.549Z,0.36
2017-01-17T04:40:01.158Z,0.43
2017-01-17T04:41:01.565Z,0.29
2017-01-17T04:42:01.575Z,0.23
2017-01-17T04:43:01.980Z,0.25
2017-01-17T04:44:01.194Z,0.32
2017-01-17T04:45:01.206Z,0.41
2017-01-17T04:46:01.617Z,0.32
2017-01-17T04:47:01.620Z,0.44
2017-01-17T04:48:01.231Z,0.36
2017-01-17T04:49:02.037Z,0.07
2017-01-17T04:50:01.651Z,-0.02
2017-01-17T04:51:01.259Z,0.18
2017-01-17T04:52:01.673Z,0.31
2017-01-17T04:53:01.677Z,0.29
2017-01-17T04:54:01.689Z,0.25
2017-01-17T04:55:01.299Z,0.22
2017-01-17T04:56:01.779Z,0.25
2017-01-17T04:57:01.314Z,0.16
2017-01-17T04:58:01.323Z,0.1
2017-01-17T04:59:02.135Z,0.16
2017-01-17T05:00:01.339Z,0.21
2017-01-17T05:01:01.750Z,0.26
2017-01-17T05:02:02.159Z,0.16
2017-01-17T05:03:01.767Z,0.15
2017-01-17T05:04:02.176Z,0.29
2017-01-17T05:05:02.185Z,0.26
2017-01-17T05:06:01.795Z,0.32
2017-01-17T05:07:01.804Z,0.31
2017-01-17T05:08:01.817Z,0.39
2017-01-17T05:09:01.832Z,0.36
2017-01-17T05:10:01.832Z,0.34
2017-01-17T05:11:01.444Z,0.26
2017-01-17T05:12:01.449Z,0.25
2017-01-17T05:13:02.259Z,0.23
2017-01-17T05:14:02.270Z,0.28
2017-01-17T05:15:01.872Z,0.25
2017-01-17T05:16:01.486Z,0.25
2017-01-17T05:17:01.902Z,0.31
2017-01-17T05:18:01.906Z,0.11
2017-01-17T05:19:01.515Z,-0.02
2017-01-17T05:20:01.921Z,-0.02
2017-01-17T05:21:02.336Z,0
2017-01-17T05:22:01.938Z,-0.03
2017-01-17T05:23:01.551Z,0.05
2017-01-17T05:24:01.961Z,0.11
2017-01-17T05:25:02.370Z,0.18
2017-01-17T05:26:01.984Z,0.16
2017-01-17T05:27:02.431Z,0.05
2017-01-17T05:28:01.599Z,0.12
2017-01-17T05:29:02.003Z,0.04
2017-01-17T05:30:01.618Z,0.15
2017-01-17T05:31:02.021Z,0.11
2017-01-17T05:32:01.629Z,0.11
2017-01-17T05:33:01.638Z,-0.14
2017-01-17T05:34:02.047Z,-0.15
2017-01-17T05:35:02.057Z,-0.23
2017-01-17T05:36:01.666Z,-0.23
2017-01-17T05:37:02.076Z,-0.18
2017-01-17T05:38:01.687Z,-0.1
2017-01-17T05:39:02.501Z,-0.17
2017-01-17T05:40:02.121Z,-0.03
2017-01-17T05:41:02.505Z,-0.31
2017-01-17T05:42:02.521Z,-0.36
2017-01-17T05:43:02.131Z,-0.35
2017-01-17T05:44:02.534Z,-0.26
2017-01-17T05:45:02.845Z,-0.26
2017-01-17T05:46:02.166Z,-0.15
2017-01-17T05:47:02.179Z,-0.1
2017-01-17T05:48:02.171Z,-0.21
2017-01-17T05:49:02.178Z,-0.1
2017-01-17T05:50:02.189Z,-0.11
2017-01-17T05:51:02.200Z,-0.02
2017-01-17T05:52:01.806Z,0.03
2017-01-17T05:53:02.215Z,-0.06
2017-01-17T05:54:02.245Z,-0.02
2017-01-17T05:55:02.634Z,-0.08
2017-01-17T05:56:02.646Z,0.03
2017-01-17T05:57:01.855Z,0.04
2017-01-17T05:58:02.666Z,0
2017-01-17T05:59:01.871Z,-0.07
2017-01-17T06:00:01.888Z,0.05
2017-01-17T06:01:02.310Z,0.07
2017-01-17T06:02:02.695Z,0.1
2017-01-17T06:03:02.705Z,-0.1
2017-01-17T06:04:02.718Z,-0.1
2017-01-17T06:05:02.338Z,-0.06
2017-01-17T06:06:01.937Z,-0.03
2017-01-17T06:07:01.948Z,-0.17
2017-01-17T06:08:02.374Z,-0.18
2017-01-17T06:09:02.364Z,-0.14
2017-01-17T06:10:02.370Z,-0.21
2017-01-17T06:11:02.380Z,-0.06
2017-01-17T06:12:01.996Z,-0.2
2017-01-17T06:13:01.998Z,-0.2
2017-01-17T06:14:02.805Z,-0.34
2017-01-17T06:15:02.015Z,-0.28
2017-01-17T06:16:02.820Z,-0.28
2017-01-17T06:17:02.034Z,-0.29
2017-01-17T06:18:02.042Z,-0.26
2017-01-17T06:19:02.858Z,-0.2
2017-01-17T06:20:02.464Z,-0.2
2017-01-17T06:21:02.464Z,-0.2
2017-01-17T06:22:02.876Z,-0.26
2017-01-17T06:23:02.487Z,-0.31
2017-01-17T06:24:02.505Z,-0.36
2017-01-17T06:25:02.904Z,-0.35
2017-01-17T06:26:02.913Z,-0.29
2017-01-17T06:27:02.122Z,-0.35
2017-01-17T06:28:02.132Z,-0.28
2017-01-17T06:29:02.939Z,-0.35
2017-01-17T06:30:02.552Z,-0.31
2017-01-17T06:31:02.161Z,-0.28
2017-01-17T06:32:02.566Z,-0.2
2017-01-17T06:33:02.579Z,-0.21
2017-01-17T06:34:02.981Z,-0.18
2017-01-17T06:35:02.997Z,-0.23
2017-01-17T06:36:02.205Z,-0.13
2017-01-17T06:37:03.010Z,-0.21
2017-01-17T06:38:02.224Z,-0.31
2017-01-17T06:39:03.030Z,-0.25
2017-01-17T06:40:02.245Z,-0.23
2017-01-17T06:41:03.045Z,-0.21
2017-01-17T06:42:02.257Z,-0.08
2017-01-17T06:43:03.062Z,0.01
2017-01-17T06:44:02.271Z,0.01
2017-01-17T06:45:02.288Z,0.01
2017-01-17T06:46:02.694Z,-0.14
2017-01-17T06:47:03.104Z,-0.26
2017-01-17T06:48:03.110Z,-0.2
2017-01-17T06:49:02.719Z,-0.2
2017-01-17T06:50:02.328Z,-0.23
2017-01-17T06:51:02.392Z,-0.18
2017-01-17T06:52:02.351Z,-0.2
2017-01-17T06:53:02.758Z,-0.2
2017-01-17T06:54:02.375Z,-0.18
2017-01-17T06:55:03.169Z,-0.21
2017-01-17T06:56:02.385Z,-0.18
2017-01-17T06:57:03.189Z,-0.29
2017-01-17T06:58:02.797Z,-0.21
2017-01-17T06:59:02.421Z,-0.18
2017-01-17T07:00:03.220Z,-0.26
2017-01-17T07:01:02.826Z,-0.28
2017-01-17T07:02:02.840Z,-0.29
2017-01-17T07:03:02.845Z,-0.29
2017-01-17T07:04:03.257Z,-0.25
2017-01-17T07:05:03.536Z,-0.21
2017-01-17T07:06:02.879Z,-0.23
2017-01-17T07:07:02.879Z,-0.28
2017-01-17T07:08:03.292Z,-0.26
2017-01-17T07:09:02.947Z,-0.1
2017-01-17T07:10:03.305Z,-0.23
2017-01-17T07:11:02.914Z,-0.2
2017-01-17T07:12:02.530Z,-0.2
2017-01-17T07:13:02.943Z,-0.29
2017-01-17T07:14:02.565Z,-0.43
2017-01-17T07:15:03.350Z,-0.47
2017-01-17T07:16:02.558Z,-0.46
2017-01-17T07:17:02.966Z,-0.32
2017-01-17T07:18:02.577Z,-0.31
2017-01-17T07:19:03.386Z,-0.28
2017-01-17T07:20:03.013Z,-0.36
2017-01-17T07:21:02.624Z,-0.32
2017-01-17T07:22:03.014Z,-0.17
2017-01-17T07:23:03.062Z,-0.29
2017-01-17T07:24:03.035Z,-0.29
2017-01-17T07:25:03.434Z,-0.34
2017-01-17T07:26:03.046Z,-0.38
2017-01-17T07:27:03.075Z,-0.39
2017-01-17T07:28:02.661Z,-0.29
2017-01-17T07:29:02.675Z,-0.32
2017-01-17T07:30:03.083Z,-0.31
2017-01-17T07:31:03.491Z,-0.26
2017-01-17T07:32:03.501Z,-0.21
2017-01-17T07:33:03.113Z,-0.29
2017-01-17T07:34:03.116Z,-0.28
2017-01-17T07:35:03.179Z,-0.26
2017-01-17T07:36:03.134Z,-0.13
2017-01-17T07:37:03.146Z,-0.21
2017-01-17T07:38:02.750Z,-0.25
2017-01-17T07:39:02.762Z,-0.14
2017-01-17T07:40:03.217Z,-0.21
2017-01-17T07:41:02.797Z,-0.31
2017-01-17T07:42:03.584Z,-0.23
2017-01-17T07:43:03.194Z,-0.28
2017-01-17T07:44:02.803Z,-0.25
2017-01-17T07:45:02.885Z,-0.28
2017-01-17T07:46:02.819Z,-0.32
2017-01-17T07:47:03.638Z,-0.2
2017-01-17T07:48:02.840Z,-0.23
2017-01-17T07:49:03.245Z,-0.2
2017-01-17T07:50:03.259Z,-0.2
2017-01-17T07:51:03.263Z,-0.17
2017-01-17T07:52:03.271Z,-0.29
2017-01-17T07:53:03.285Z,-0.28
2017-01-17T07:54:03.292Z,-0.26
2017-01-17T07:55:03.701Z,-0.2
2017-01-17T07:56:03.308Z,-0.07
2017-01-17T07:57:03.321Z,-0.02
2017-01-17T07:58:03.726Z,0.03
2017-01-17T07:59:03.333Z,-0.03
2017-01-17T08:00:03.345Z,-0.13
2017-01-17T08:01:03.802Z,-0.13
2017-01-17T08:02:02.963Z,-0.25
2017-01-17T08:03:03.774Z,-0.18
2017-01-17T08:04:03.381Z,-0.1
2017-01-17T08:05:02.989Z,-0.07
2017-01-17T08:06:03.842Z,-0.07
2017-01-17T08:07:03.407Z,0.08
2017-01-17T08:08:03.811Z,0.04
2017-01-17T08:09:03.422Z,0.07
2017-01-17T08:10:03.832Z,0.21
2017-01-17T08:11:03.443Z,0.08
2017-01-17T08:12:04.448Z,0.16
2017-01-17T08:13:03.199Z,0.19
2017-01-17T08:14:03.351Z,0.01
2017-01-17T08:15:04.440Z,0.05
2017-01-17T08:16:04.062Z,0.21
2017-01-17T08:17:03.924Z,0.23
2017-01-17T08:18:04.167Z,0.26
2017-01-17T08:19:03.536Z,0.23
2017-01-17T08:20:03.605Z,0.25
2017-01-17T08:21:03.962Z,0.32
2017-01-17T08:22:03.540Z,0.34
2017-01-17T08:23:03.575Z,0.34
2017-01-17T08:24:03.561Z,0.43
2017-01-17T08:25:03.166Z,0.37
2017-01-17T08:26:03.572Z,0.34
2017-01-17T08:27:03.624Z,0.39
2017-01-17T08:28:03.590Z,0.37
2017-01-17T08:29:03.600Z,0.34
2017-01-17T08:30:03.612Z,0.25
2017-01-17T08:31:03.225Z,0.29
2017-01-17T08:32:03.628Z,0.28
2017-01-17T08:33:03.241Z,0.34
2017-01-17T08:34:03.650Z,0.36
2017-01-17T08:35:03.257Z,0.36
2017-01-17T08:36:03.269Z,0.34
2017-01-17T08:37:03.679Z,0.5
2017-01-17T08:38:03.685Z,0.65
2017-01-17T08:39:04.096Z,0.65
2017-01-17T08:40:03.705Z,0.63
2017-01-17T08:41:03.717Z,0.59
2017-01-17T08:42:03.726Z,0.56
2017-01-17T08:43:03.752Z,0.39
2017-01-17T08:44:03.744Z,0.46
2017-01-17T08:45:03.559Z,0.41
2017-01-17T08:46:04.160Z,0.47
2017-01-17T08:47:03.768Z,0.36
2017-01-17T08:48:03.780Z,0.39
2017-01-17T08:49:03.814Z,0.56
2017-01-17T08:50:03.797Z,0.44
2017-01-17T08:51:03.803Z,0.55
2017-01-17T08:52:03.818Z,0.5
2017-01-17T08:53:04.229Z,0.5
2017-01-17T08:54:03.832Z,0.32
2017-01-17T08:55:03.840Z,0.23
2017-01-17T08:56:03.853Z,0.23
2017-01-17T08:57:03.463Z,0.26
2017-01-17T08:58:03.471Z,0.36
2017-01-17T08:59:04.284Z,0.28
2017-01-17T09:00:03.893Z,0.36
2017-01-17T09:01:03.502Z,0.37
2017-01-17T09:02:03.907Z,0.52
2017-01-17T09:03:03.919Z,0.5
2017-01-17T09:04:03.926Z,0.37
2017-01-17T09:05:03.935Z,0.31
2017-01-17T09:06:04.344Z,0.39
2017-01-17T09:07:03.559Z,0.43
2017-01-17T09:08:03.965Z,0.31
2017-01-17T09:09:03.972Z,0.22
2017-01-17T09:10:03.587Z,0.28
2017-01-17T09:11:03.595Z,0.49
2017-01-17T09:12:04.000Z,0.39
2017-01-17T09:13:04.030Z,0.36
2017-01-17T09:14:04.425Z,0.36
2017-01-17T09:15:03.653Z,0.39
2017-01-17T09:16:04.038Z,0.34
2017-01-17T09:17:03.648Z,0.43
2017-01-17T09:18:04.057Z,0.26
2017-01-17T09:19:04.523Z,0.36
2017-01-17T09:20:04.077Z,0.29
2017-01-17T09:21:04.486Z,0.28
2017-01-17T09:22:04.524Z,0.37
2017-01-17T09:23:03.706Z,0.44
2017-01-17T09:24:04.162Z,0.44
2017-01-17T09:25:04.522Z,0.62
2017-01-17T09:26:04.133Z,0.63
2017-01-17T09:27:04.140Z,0.7
2017-01-17T09:28:04.568Z,0.5
2017-01-17T09:29:03.814Z,0.41
2017-01-17T09:30:03.772Z,0.39
2017-01-17T09:31:03.793Z,0.39
2017-01-17T09:32:04.589Z,0.41
2017-01-17T09:33:04.326Z,0.5
2017-01-17T09:34:04.208Z,0.47
2017-01-17T09:35:03.818Z,0.31
2017-01-17T09:36:04.225Z,0.23
2017-01-17T09:37:04.238Z,0.11
2017-01-17T09:38:04.241Z,0.08
2017-01-17T09:39:04.649Z,0.15
2017-01-17T09:40:03.863Z,0.25
2017-01-17T09:41:03.868Z,0.36
2017-01-17T09:42:04.679Z,0.37
2017-01-17T09:43:03.890Z,0.41
2017-01-17T09:44:04.302Z,0.55
2017-01-17T09:45:04.708Z,0.58
2017-01-17T09:46:04.317Z,0.5
2017-01-17T09:47:04.326Z,0.4
2017-01-17T09:48:04.340Z,0.4
2017-01-17T09:49:04.795Z,0.47
2017-01-17T09:50:04.750Z,0.63
2017-01-17T09:51:04.766Z,0.68
2017-01-17T09:52:03.976Z,0.68
2017-01-17T09:53:04.380Z,0.83
2017-01-17T09:54:04.044Z,0.81
2017-01-17T09:55:04.004Z,0.81
2017-01-17T09:56:04.406Z,0.77
2017-01-17T09:57:04.020Z,0.74
2017-01-17T09:58:04.428Z,0.68
2017-01-17T09:59:04.443Z,0.74
2017-01-17T10:00:04.449Z,0.49
2017-01-17T10:01:04.458Z,0.4
2017-01-17T10:02:04.465Z,0.41
2017-01-17T10:03:04.480Z,0.37
2017-01-17T10:04:04.492Z,0.19
2017-01-17T10:05:04.492Z,0.21
2017-01-17T10:06:04.902Z,-0.06
2017-01-17T10:07:04.115Z,-0.03
2017-01-17T10:08:04.918Z,-0.08
2017-01-17T10:09:04.940Z,-0.02
2017-01-17T10:10:04.937Z,0
2017-01-17T10:11:04.553Z,-0.07
2017-01-17T10:12:04.563Z,-0.13
2017-01-17T10:13:04.567Z,0.01
2017-01-17T10:14:04.579Z,0.18
2017-01-17T10:15:04.999Z,0.25
2017-01-17T10:16:05.006Z,0.23
2017-01-17T10:17:05.004Z,0.31
2017-01-17T10:18:04.612Z,0.11
2017-01-17T10:19:05.022Z,0.08
2017-01-17T10:20:05.033Z,0.1
2017-01-17T10:21:04.640Z,0.11
2017-01-17T10:22:04.649Z,0.11
2017-01-17T10:23:04.265Z,0.21
2017-01-17T10:24:04.272Z,0.36
2017-01-17T10:25:05.078Z,-0.02
2017-01-17T10:26:04.289Z,-0.07
2017-01-17T10:27:04.695Z,0.04
2017-01-17T10:28:05.109Z,0.25
2017-01-17T10:29:05.116Z,0.21
2017-01-17T10:30:04.725Z,0.39
2017-01-17T10:31:04.737Z,0.23
2017-01-17T10:32:04.740Z,0.21
2017-01-17T10:33:04.752Z,0.16
2017-01-17T10:34:05.158Z,-0.06
2017-01-17T10:35:04.771Z,0.08
2017-01-17T10:36:05.178Z,0.04
2017-01-17T10:37:04.796Z,0.07
2017-01-17T10:38:04.795Z,0.07
2017-01-17T10:39:04.810Z,0.25
2017-01-17T10:40:04.865Z,0.28
2017-01-17T10:41:05.223Z,0.34
2017-01-17T10:42:04.875Z,0.25
2017-01-17T10:43:05.243Z,0.23
2017-01-17T10:44:04.855Z,0.1
2017-01-17T10:45:04.915Z,0.26
2017-01-17T10:46:04.871Z,0.18
2017-01-17T10:47:04.884Z,0.25
2017-01-17T10:48:04.918Z,0.28
2017-01-17T10:49:04.500Z,0.12
2017-01-17T10:50:05.365Z,0.12
2017-01-17T10:51:05.321Z,0.23
2017-01-17T10:52:05.326Z,0.29
2017-01-17T10:53:04.539Z,0.41
2017-01-17T10:54:04.577Z,0.36
2017-01-17T10:55:05.013Z,0.55
2017-01-17T10:56:05.361Z,0.39
2017-01-17T10:57:04.971Z,0.43
2017-01-17T10:58:05.384Z,0.55
2017-01-17T10:59:04.593Z,0.46
2017-01-17T11:00:05.059Z,0.55
2017-01-17T11:01:05.008Z,0.39
2017-01-17T11:02:05.025Z,0.52
2017-01-17T11:03:05.069Z,0.4
2017-01-17T11:04:04.647Z,0.47
2017-01-17T11:05:05.451Z,0.47
2017-01-17T11:06:04.662Z,0.5
2017-01-17T11:07:05.477Z,0.43
2017-01-17T11:08:04.680Z,0.31
2017-01-17T11:09:04.736Z,0.39
2017-01-17T11:10:05.492Z,0.49
2017-01-17T11:11:05.104Z,0.59
2017-01-17T11:12:05.115Z,0.62
2017-01-17T11:13:05.520Z,0.77
2017-01-17T11:14:05.131Z,0.86
2017-01-17T11:15:05.146Z,0.86
2017-01-17T11:16:05.202Z,0.66
2017-01-17T11:17:04.778Z,0.5
2017-01-17T11:18:05.171Z,0.46
2017-01-17T11:19:05.181Z,0.66
2017-01-17T11:20:04.786Z,0.73
2017-01-17T11:21:05.648Z,0.78
2017-01-17T11:22:05.208Z,0.73
2017-01-17T11:23:05.218Z,0.41
2017-01-17T11:24:05.226Z,0.43
2017-01-17T11:25:05.235Z,0.55
2017-01-17T11:26:05.307Z,0.56
2017-01-17T11:27:05.253Z,0.7
2017-01-17T11:28:05.663Z,0.92
2017-01-17T11:29:04.877Z,0.95
2017-01-17T11:30:05.282Z,0.95
2017-01-17T11:31:05.292Z,0.99
2017-01-17T11:32:04.907Z,0.87
2017-01-17T11:33:04.913Z,0.96
2017-01-17T11:34:04.925Z,1.01
2017-01-17T11:35:05.348Z,1.12
2017-01-17T11:36:04.942Z,1.16
2017-01-17T11:37:05.352Z,1.14
2017-01-17T11:38:04.962Z,1.04
2017-01-17T11:39:05.373Z,0.87
2017-01-17T11:40:04.999Z,0.94
2017-01-17T11:41:05.393Z,1.01
2017-01-17T11:42:04.998Z,1.05
2017-01-17T11:43:05.410Z,1.1
2017-01-17T11:44:05.021Z,1.19
2017-01-17T11:45:05.928Z,1.22
2017-01-17T11:46:05.445Z,1.31
2017-01-17T11:47:05.451Z,1.32
2017-01-17T11:48:05.858Z,1.35
2017-01-17T11:49:05.070Z,1.28
2017-01-17T11:50:05.876Z,1.12
2017-01-17T11:51:05.489Z,1.1
2017-01-17T11:52:05.896Z,1.16
2017-01-17T11:53:05.506Z,1.23
2017-01-17T11:54:05.117Z,1.28
2017-01-17T11:55:05.932Z,1.44
2017-01-17T11:56:05.585Z,1.42
2017-01-17T11:57:05.940Z,1.48
2017-01-17T11:58:05.155Z,1.17
2017-01-17T11:59:05.570Z,1.26
2017-01-17T12:00:05.976Z,1.3
2017-01-17T12:01:05.600Z,1.34
2017-01-17T12:02:05.597Z,1.45
2017-01-17T12:03:05.606Z,1.49
2017-01-17T12:04:05.620Z,1.49
2017-01-17T12:05:05.631Z,1.55
2017-01-17T12:06:06.075Z,1.66
2017-01-17T12:07:06.045Z,1.66
2017-01-17T12:08:05.656Z,1.6
2017-01-17T12:09:05.667Z,1.63
2017-01-17T12:10:05.281Z,1.71
2017-01-17T12:11:05.693Z,1.66
2017-01-17T12:12:05.696Z,1.63
2017-01-17T12:13:05.309Z,1.71
2017-01-17T12:14:06.117Z,1.85
2017-01-17T12:15:05.731Z,1.88
2017-01-17T12:16:05.340Z,1.85
2017-01-17T12:17:05.747Z,1.92
2017-01-17T12:18:05.360Z,1.63
2017-01-17T12:19:05.769Z,1.68
2017-01-17T12:20:05.777Z,1.87
2017-01-17T12:21:05.797Z,1.66
2017-01-17T12:22:06.195Z,1.76
2017-01-17T12:23:05.859Z,1.95
2017-01-17T12:24:05.421Z,2.22
2017-01-17T12:25:06.230Z,2.39
2017-01-17T12:26:06.235Z,2.51
2017-01-17T12:27:05.849Z,2.5
2017-01-17T12:28:05.874Z,2.39
2017-01-17T12:29:05.874Z,2.42
2017-01-17T12:30:05.884Z,2.43
2017-01-17T12:31:05.497Z,2.38
2017-01-17T12:32:05.903Z,2.51
2017-01-17T12:33:06.414Z,2.56
2017-01-17T12:34:05.930Z,2.53
2017-01-17T12:35:05.950Z,2.28
2017-01-17T12:36:06.345Z,2.02
2017-01-17T12:37:06.360Z,2.04
2017-01-17T12:38:06.369Z,2.07
2017-01-17T12:39:05.979Z,2.32
2017-01-17T12:40:05.992Z,2.56
2017-01-17T12:41:06.006Z,2.79
2017-01-17T12:42:06.016Z,2.93
2017-01-17T12:43:06.420Z,2.92
2017-01-17T12:44:06.035Z,2.82
2017-01-17T12:45:06.048Z,2.6
2017-01-17T12:46:06.482Z,2.22
2017-01-17T12:47:05.688Z,2.22
2017-01-17T12:48:06.080Z,2.22
2017-01-17T12:49:06.208Z,2.2
2017-01-17T12:50:06.516Z,2.47
2017-01-17T12:51:06.144Z,2.68
2017-01-17T12:52:06.127Z,2.92
2017-01-17T12:53:06.540Z,2.93
2017-01-17T12:54:06.155Z,2.89
2017-01-17T12:55:06.562Z,3.03
2017-01-17T12:56:06.168Z,3.1
2017-01-17T12:57:06.580Z,3.01
2017-01-17T12:58:06.198Z,3.03
2017-01-17T12:59:06.204Z,3.04
2017-01-17T13:00:06.218Z,3
2017-01-17T13:01:06.293Z,2.98
2017-01-17T13:02:05.837Z,2.82
2017-01-17T13:03:05.851Z,2.82
2017-01-17T13:04:06.366Z,2.93
2017-01-17T13:05:06.675Z,2.89
2017-01-17T13:06:06.284Z,2.87
2017-01-17T13:07:06.306Z,2.86
2017-01-17T13:08:06.708Z,2.69
2017-01-17T13:09:06.715Z,2.6
2017-01-17T13:10:06.730Z,2.46
2017-01-17T13:11:06.341Z,2.53
2017-01-17T13:12:05.957Z,2.44
2017-01-17T13:13:06.365Z,2.42
2017-01-17T13:14:05.972Z,2.5
2017-01-17T13:15:06.380Z,2.54
2017-01-17T13:16:06.824Z,2.46
2017-01-17T13:17:06.404Z,2.29